sensor_id;sensor_type;location;lat;lon;timestamp;temperature;humidity
40964;DHT22;26693;51.168;4.138;2022-11-04T00:00:20;11.00;99.90
40964;DHT22;26693;51.168;4.138;2022-11-04T00:01:23;11.00;99.90
40964;DHT22;26693;51.168;4.138;2022-11-04T00:02:23;11.00;99.90
40964;DHT22;26693;51.168;4.138;2022-11-04T00:03:24;11.00;99.90
40964;DHT22;26693;51.168;4.138;2022-11-04T00:04:26;11.10;99.90
40964;DHT22;26693;51.168;4.138;2022-11-04T00:05:27;10.90;99.90
40964;DHT22;26693;51.168;4.138;2022-11-04T00:06:27;10.90;99.90
40964;DHT22;26693;51.168;4.138;2022-11-04T00:07:28;10.90;99.90
40964;DHT22;26693;51.168;4.138;2022-11-04T00:08:52;10.90;99.90
40964;DHT22;26693;51.168;4.138;2022-11-04T00:09:53;10.90;99.90
40964;DHT22;26693;51.168;4.138;2022-11-04T00:10:57;10.90;99.90
40964;DHT22;26693;51.168;4.138;2022-11-04T00:12:17;10.90;99.90
40964;DHT22;26693;51.168;4.138;2022-11-04T00:13:29;10.90;99.90
40964;DHT22;26693;51.168;4.138;2022-11-04T00:14:31;10.90;99.90
40964;DHT22;26693;51.168;4.138;2022-11-04T00:15:35;10.90;99.90
40964;DHT22;26693;51.168;4.138;2022-11-04T00:16:55;10.90;99.90
40964;DHT22;26693;51.168;4.138;2022-11-04T00:18:14;11.00;99.90
40964;DHT22;26693;51.168;4.138;2022-11-04T00:19:14;10.90;99.90
40964;DHT22;26693;51.168;4.138;2022-11-04T00:20:15;10.90;99.90
40964;DHT22;26693;51.168;4.138;2022-11-04T00:21:45;10.90;99.90
40964;DHT22;26693;51.168;4.138;2022-11-04T00:23:04;11.00;99.90
40964;DHT22;26693;51.168;4.138;2022-11-04T00:24:23;11.10;99.90
40964;DHT22;26693;51.168;4.138;2022-11-04T00:25:42;11.00;99.90
40964;DHT22;26693;51.168;4.138;2022-11-04T00:27:01;11.00;99.90
40964;DHT22;26693;51.168;4.138;2022-11-04T00:28:20;11.00;99.90
40964;DHT22;26693;51.168;4.138;2022-11-04T00:29:39;11.10;99.90
40964;DHT22;26693;51.168;4.138;2022-11-04T00:30:40;11.10;99.90
40964;DHT22;26693;51.168;4.138;2022-11-04T00:31:40;11.10;99.90
40964;DHT22;26693;51.168;4.138;2022-11-04T00:33:00;11.10;99.90
40964;DHT22;26693;51.168;4.138;2022-11-04T00:34:18;11.10;99.90
40964;DHT22;26693;51.168;4.138;2022-11-04T00:35:20;11.00;99.90
40964;DHT22;26693;51.168;4.138;2022-11-04T00:36:23;11.00;99.90
40964;DHT22;26693;51.168;4.138;2022-11-04T00:37:23;11.10;99.90
40964;DHT22;26693;51.168;4.138;2022-11-04T00:38:24;11.10;99.90
40964;DHT22;26693;51.168;4.138;2022-11-04T00:39:25;11.10;99.90
40964;DHT22;26693;51.168;4.138;2022-11-04T00:40:25;11.10;99.90
40964;DHT22;26693;51.168;4.138;2022-11-04T00:41:26;11.00;99.90
40964;DHT22;26693;51.168;4.138;2022-11-04T00:42:26;11.00;99.90
40964;DHT22;26693;51.168;4.138;2022-11-04T00:43:27;11.00;99.90
40964;DHT22;26693;51.168;4.138;2022-11-04T00:44:28;11.10;99.90
40964;DHT22;26693;51.168;4.138;2022-11-04T00:45:28;11.10;99.90
40964;DHT22;26693;51.168;4.138;2022-11-04T00:46:31;11.20;99.90
40964;DHT22;26693;51.168;4.138;2022-11-04T00:47:32;11.30;99.90
40964;DHT22;26693;51.168;4.138;2022-11-04T00:48:33;11.30;99.90
40964;DHT22;26693;51.168;4.138;2022-11-04T00:49:33;11.30;99.90
40964;DHT22;26693;51.168;4.138;2022-11-04T00:50:34;11.30;99.90
40964;DHT22;26693;51.168;4.138;2022-11-04T00:51:35;11.30;99.90
40964;DHT22;26693;51.168;4.138;2022-11-04T00:52:35;11.30;99.90
40964;DHT22;26693;51.168;4.138;2022-11-04T00:53:36;11.20;99.90
40964;DHT22;26693;51.168;4.138;2022-11-04T00:54:36;11.20;99.90
40964;DHT22;26693;51.168;4.138;2022-11-04T00:55:37;11.10;99.90
40964;DHT22;26693;51.168;4.138;2022-11-04T00:56:38;11.00;99.90
40964;DHT22;26693;51.168;4.138;2022-11-04T00:57:39;11.00;99.90
40964;DHT22;26693;51.168;4.138;2022-11-04T00:58:40;11.00;99.90
40964;DHT22;26693;51.168;4.138;2022-11-04T00:59:40;11.00;99.90
40964;DHT22;26693;51.168;4.138;2022-11-04T01:00:41;11.00;99.90
40964;DHT22;26693;51.168;4.138;2022-11-04T01:01:41;11.00;99.90
40964;DHT22;26693;51.168;4.138;2022-11-04T01:02:42;11.00;99.90
40964;DHT22;26693;51.168;4.138;2022-11-04T01:03:47;10.90;99.90
40964;DHT22;26693;51.168;4.138;2022-11-04T01:04:48;10.90;99.90
40964;DHT22;26693;51.168;4.138;2022-11-04T01:05:48;11.00;99.90
40964;DHT22;26693;51.168;4.138;2022-11-04T01:06:49;11.00;99.90
40964;DHT22;26693;51.168;4.138;2022-11-04T01:07:50;10.90;99.90
40964;DHT22;26693;51.168;4.138;2022-11-04T01:09:02;10.90;99.90
40964;DHT22;26693;51.168;4.138;2022-11-04T01:10:04;11.00;99.90
40964;DHT22;26693;51.168;4.138;2022-11-04T01:11:08;11.10;99.90
40964;DHT22;26693;51.168;4.138;2022-11-04T01:12:09;11.00;99.90
40964;DHT22;26693;51.168;4.138;2022-11-04T01:13:10;10.90;99.90
40964;DHT22;26693;51.168;4.138;2022-11-04T01:14:11;10.90;99.90
40964;DHT22;26693;51.168;4.138;2022-11-04T01:15:12;10.90;99.90
40964;DHT22;26693;51.168;4.138;2022-11-04T01:16:12;10.90;99.90
40964;DHT22;26693;51.168;4.138;2022-11-04T01:17:13;10.90;99.90
40964;DHT22;26693;51.168;4.138;2022-11-04T01:18:13;10.90;99.90
40964;DHT22;26693;51.168;4.138;2022-11-04T01:19:14;10.90;99.90
40964;DHT22;26693;51.168;4.138;2022-11-04T01:20:14;10.90;99.90
40964;DHT22;26693;51.168;4.138;2022-11-04T01:21:16;10.80;99.90
40964;DHT22;26693;51.168;4.138;2022-11-04T01:22:17;10.70;99.90
40964;DHT22;26693;51.168;4.138;2022-11-04T01:23:18;10.80;99.90
40964;DHT22;26693;51.168;4.138;2022-11-04T01:24:18;10.80;99.90
40964;DHT22;26693;51.168;4.138;2022-11-04T01:25:19;10.80;99.90
40964;DHT22;26693;51.168;4.138;2022-11-04T01:26:21;10.70;99.90
40964;DHT22;26693;51.168;4.138;2022-11-04T01:27:22;10.60;99.90
40964;DHT22;26693;51.168;4.138;2022-11-04T01:28:23;10.50;99.90
40964;DHT22;26693;51.168;4.138;2022-11-04T01:29:23;10.50;99.90
40964;DHT22;26693;51.168;4.138;2022-11-04T01:30:24;10.50;99.90
40964;DHT22;26693;51.168;4.138;2022-11-04T01:31:27;10.50;99.90
40964;DHT22;26693;51.168;4.138;2022-11-04T01:32:28;10.50;99.90
40964;DHT22;26693;51.168;4.138;2022-11-04T01:33:28;10.60;99.90
40964;DHT22;26693;51.168;4.138;2022-11-04T01:34:29;10.60;99.90
40964;DHT22;26693;51.168;4.138;2022-11-04T01:35:30;10.60;99.90
40964;DHT22;26693;51.168;4.138;2022-11-04T01:36:30;10.60;99.90
40964;DHT22;26693;51.168;4.138;2022-11-04T01:37:31;10.70;99.90
40964;DHT22;26693;51.168;4.138;2022-11-04T01:38:32;10.70;99.90
40964;DHT22;26693;51.168;4.138;2022-11-04T01:39:32;10.70;99.90
40964;DHT22;26693;51.168;4.138;2022-11-04T01:40:37;10.60;99.90
40964;DHT22;26693;51.168;4.138;2022-11-04T01:41:39;10.70;99.90
40964;DHT22;26693;51.168;4.138;2022-11-04T01:42:39;10.80;99.90
40964;DHT22;26693;51.168;4.138;2022-11-04T01:44:00;10.80;99.90
40964;DHT22;26693;51.168;4.138;2022-11-04T01:45:01;10.80;99.90
40964;DHT22;26693;51.168;4.138;2022-11-04T01:46:02;10.70;99.90
40964;DHT22;26693;51.168;4.138;2022-11-04T01:47:03;10.70;99.90
40964;DHT22;26693;51.168;4.138;2022-11-04T01:48:12;10.70;99.90
40964;DHT22;26693;51.168;4.138;2022-11-04T01:49:24;10.60;99.90
40964;DHT22;26693;51.168;4.138;2022-11-04T01:50:29;10.60;99.90
40964;DHT22;26693;51.168;4.138;2022-11-04T01:51:32;10.60;99.90
40964;DHT22;26693;51.168;4.138;2022-11-04T01:52:41;10.60;99.90
40964;DHT22;26693;51.168;4.138;2022-11-04T01:53:43;10.60;99.90
40964;DHT22;26693;51.168;4.138;2022-11-04T01:54:47;10.60;99.90
40964;DHT22;26693;51.168;4.138;2022-11-04T01:55:56;10.60;99.90
40964;DHT22;26693;51.168;4.138;2022-11-04T01:57:00;10.50;99.90
40964;DHT22;26693;51.168;4.138;2022-11-04T01:58:09;10.60;99.90
40964;DHT22;26693;51.168;4.138;2022-11-04T01:59:19;10.60;99.90
40964;DHT22;26693;51.168;4.138;2022-11-04T02:00:20;10.60;99.90
40964;DHT22;26693;51.168;4.138;2022-11-04T02:01:21;10.60;99.90
40964;DHT22;26693;51.168;4.138;2022-11-04T02:02:22;10.50;99.90
40964;DHT22;26693;51.168;4.138;2022-11-04T02:03:31;10.60;99.90
40964;DHT22;26693;51.168;4.138;2022-11-04T02:04:33;10.60;99.90
40964;DHT22;26693;51.168;4.138;2022-11-04T02:05:36;10.50;99.90
40964;DHT22;26693;51.168;4.138;2022-11-04T02:06:36;10.60;99.90
40964;DHT22;26693;51.168;4.138;2022-11-04T02:07:37;10.60;99.90
40964;DHT22;26693;51.168;4.138;2022-11-04T02:08:38;10.70;99.90
40964;DHT22;26693;51.168;4.138;2022-11-04T02:09:40;10.80;99.90
40964;DHT22;26693;51.168;4.138;2022-11-04T02:10:47;10.80;99.90
40964;DHT22;26693;51.168;4.138;2022-11-04T02:11:48;10.70;99.90
40964;DHT22;26693;51.168;4.138;2022-11-04T02:13:07;10.80;99.90
40964;DHT22;26693;51.168;4.138;2022-11-04T02:14:08;10.80;99.90
40964;DHT22;26693;51.168;4.138;2022-11-04T02:15:08;10.70;99.90
40964;DHT22;26693;51.168;4.138;2022-11-04T02:16:39;10.60;99.90
40964;DHT22;26693;51.168;4.138;2022-11-04T02:17:59;10.70;99.90
40964;DHT22;26693;51.168;4.138;2022-11-04T02:22:25;10.80;99.90
40964;DHT22;26693;51.168;4.138;2022-11-04T02:25:10;11.00;99.90
40964;DHT22;26693;51.168;4.138;2022-11-04T02:30:32;10.80;99.90
40964;DHT22;26693;51.168;4.138;2022-11-04T02:31:50;10.60;99.90
40964;DHT22;26693;51.168;4.138;2022-11-04T02:36:51;10.70;99.90
40964;DHT22;26693;51.168;4.138;2022-11-04T02:39:37;10.80;99.90
40964;DHT22;26693;51.168;4.138;2022-11-04T02:42:16;10.80;99.90
40964;DHT22;26693;51.168;4.138;2022-11-04T02:45:11;10.80;99.90
40964;DHT22;26693;51.168;4.138;2022-11-04T02:46:35;10.80;99.90
40964;DHT22;26693;51.168;4.138;2022-11-04T02:47:40;10.80;99.90
40964;DHT22;26693;51.168;4.138;2022-11-04T02:48:44;10.90;99.90
40964;DHT22;26693;51.168;4.138;2022-11-04T02:49:58;10.80;99.90
40964;DHT22;26693;51.168;4.138;2022-11-04T02:52:29;10.70;99.90
40964;DHT22;26693;51.168;4.138;2022-11-04T02:53:37;10.70;99.90
40964;DHT22;26693;51.168;4.138;2022-11-04T02:54:49;10.60;99.90
40964;DHT22;26693;51.168;4.138;2022-11-04T02:55:55;10.70;99.90
40964;DHT22;26693;51.168;4.138;2022-11-04T02:56:59;10.70;99.90
40964;DHT22;26693;51.168;4.138;2022-11-04T02:58:03;10.80;99.90
40964;DHT22;26693;51.168;4.138;2022-11-04T02:59:07;10.70;99.90
40964;DHT22;26693;51.168;4.138;2022-11-04T03:00:11;10.70;99.90
40964;DHT22;26693;51.168;4.138;2022-11-04T03:01:17;10.70;99.90
40964;DHT22;26693;51.168;4.138;2022-11-04T03:02:23;10.60;99.90
40964;DHT22;26693;51.168;4.138;2022-11-04T03:03:29;10.50;99.90
40964;DHT22;26693;51.168;4.138;2022-11-04T03:04:35;10.50;99.90
40964;DHT22;26693;51.168;4.138;2022-11-04T03:05:39;10.50;99.90
40964;DHT22;26693;51.168;4.138;2022-11-04T03:06:43;10.50;99.90
40964;DHT22;26693;51.168;4.138;2022-11-04T03:07:49;10.40;99.90
40964;DHT22;26693;51.168;4.138;2022-11-04T03:08:51;10.50;99.90
40964;DHT22;26693;51.168;4.138;2022-11-04T03:09:59;10.50;99.90
40964;DHT22;26693;51.168;4.138;2022-11-04T03:11:16;10.50;99.90
40964;DHT22;26693;51.168;4.138;2022-11-04T03:12:22;10.50;99.90
40964;DHT22;26693;51.168;4.138;2022-11-04T03:13:35;10.60;99.90
40964;DHT22;26693;51.168;4.138;2022-11-04T03:14:41;10.60;99.90
40964;DHT22;26693;51.168;4.138;2022-11-04T03:15:49;10.60;99.90
40964;DHT22;26693;51.168;4.138;2022-11-04T03:16:52;10.60;99.90
40964;DHT22;26693;51.168;4.138;2022-11-04T03:19:31;10.60;99.90
40964;DHT22;26693;51.168;4.138;2022-11-04T03:20:35;10.50;99.90
40964;DHT22;26693;51.168;4.138;2022-11-04T03:21:41;10.70;99.90
40964;DHT22;26693;51.168;4.138;2022-11-04T03:22:45;10.60;99.90
40964;DHT22;26693;51.168;4.138;2022-11-04T03:23:45;10.70;99.90
40964;DHT22;26693;51.168;4.138;2022-11-04T03:24:46;10.80;99.90
40964;DHT22;26693;51.168;4.138;2022-11-04T03:25:51;10.80;99.90
40964;DHT22;26693;51.168;4.138;2022-11-04T03:26:59;10.80;99.90
40964;DHT22;26693;51.168;4.138;2022-11-04T03:28:11;10.60;99.90
40964;DHT22;26693;51.168;4.138;2022-11-04T03:29:26;10.60;99.90
40964;DHT22;26693;51.168;4.138;2022-11-04T03:30:36;10.70;99.90
40964;DHT22;26693;51.168;4.138;2022-11-04T03:31:46;10.60;99.90
40964;DHT22;26693;51.168;4.138;2022-11-04T03:33:05;10.60;99.90
40964;DHT22;26693;51.168;4.138;2022-11-04T03:34:07;10.70;99.90
40964;DHT22;26693;51.168;4.138;2022-11-04T03:35:09;10.70;99.90
40964;DHT22;26693;51.168;4.138;2022-11-04T03:36:10;10.50;99.90
40964;DHT22;26693;51.168;4.138;2022-11-04T03:37:11;10.50;99.90
40964;DHT22;26693;51.168;4.138;2022-11-04T03:38:11;10.50;99.90
40964;DHT22;26693;51.168;4.138;2022-11-04T03:39:12;10.50;99.90
40964;DHT22;26693;51.168;4.138;2022-11-04T03:40:13;10.40;99.90
40964;DHT22;26693;51.168;4.138;2022-11-04T03:41:36;10.40;99.90
40964;DHT22;26693;51.168;4.138;2022-11-04T03:42:49;10.40;99.90
40964;DHT22;26693;51.168;4.138;2022-11-04T03:43:51;10.50;99.90
40964;DHT22;26693;51.168;4.138;2022-11-04T03:44:54;10.40;99.90
40964;DHT22;26693;51.168;4.138;2022-11-04T03:45:55;10.50;99.90
40964;DHT22;26693;51.168;4.138;2022-11-04T03:46:56;10.50;99.90
40964;DHT22;26693;51.168;4.138;2022-11-04T03:47:57;10.60;99.90
40964;DHT22;26693;51.168;4.138;2022-11-04T03:48:58;10.60;99.90
40964;DHT22;26693;51.168;4.138;2022-11-04T03:50:11;10.70;99.90
40964;DHT22;26693;51.168;4.138;2022-11-04T03:51:13;10.60;99.90
40964;DHT22;26693;51.168;4.138;2022-11-04T03:52:13;10.70;99.90
40964;DHT22;26693;51.168;4.138;2022-11-04T03:53:18;10.50;99.90
40964;DHT22;26693;51.168;4.138;2022-11-04T03:54:20;10.40;99.90
40964;DHT22;26693;51.168;4.138;2022-11-04T03:55:27;10.40;99.90
40964;DHT22;26693;51.168;4.138;2022-11-04T03:57:02;10.50;99.90
40964;DHT22;26693;51.168;4.138;2022-11-04T03:59:58;10.40;99.90
40964;DHT22;26693;51.168;4.138;2022-11-04T04:02:33;10.40;99.90
40964;DHT22;26693;51.168;4.138;2022-11-04T04:04:05;10.40;99.90
40964;DHT22;26693;51.168;4.138;2022-11-04T04:05:29;10.40;99.90
40964;DHT22;26693;51.168;4.138;2022-11-04T04:06:33;10.30;99.90
40964;DHT22;26693;51.168;4.138;2022-11-04T04:07:38;10.40;99.90
40964;DHT22;26693;51.168;4.138;2022-11-04T04:08:51;10.40;99.90
40964;DHT22;26693;51.168;4.138;2022-11-04T04:10:12;10.40;99.90
40964;DHT22;26693;51.168;4.138;2022-11-04T04:11:46;10.40;99.90
40964;DHT22;26693;51.168;4.138;2022-11-04T04:12:50;10.50;99.90
40964;DHT22;26693;51.168;4.138;2022-11-04T04:15:06;10.50;99.90
40964;DHT22;26693;51.168;4.138;2022-11-04T04:16:12;10.50;99.90
40964;DHT22;26693;51.168;4.138;2022-11-04T04:17:26;10.40;99.90
40964;DHT22;26693;51.168;4.138;2022-11-04T04:18:50;10.40;99.90
40964;DHT22;26693;51.168;4.138;2022-11-04T04:20:03;10.40;99.90
40964;DHT22;26693;51.168;4.138;2022-11-04T04:21:08;10.40;99.90
40964;DHT22;26693;51.168;4.138;2022-11-04T04:22:21;10.40;99.90
40964;DHT22;26693;51.168;4.138;2022-11-04T04:23:26;10.30;99.90
40964;DHT22;26693;51.168;4.138;2022-11-04T04:24:49;10.10;99.90
40964;DHT22;26693;51.168;4.138;2022-11-04T04:26:10;10.10;99.90
40964;DHT22;26693;51.168;4.138;2022-11-04T04:27:31;10.20;99.90
40964;DHT22;26693;51.168;4.138;2022-11-04T04:28:32;10.20;99.90
40964;DHT22;26693;51.168;4.138;2022-11-04T04:29:35;10.30;99.90
40964;DHT22;26693;51.168;4.138;2022-11-04T04:30:37;10.20;99.90
40964;DHT22;26693;51.168;4.138;2022-11-04T04:31:39;10.30;99.90
40964;DHT22;26693;51.168;4.138;2022-11-04T04:33:12;10.40;99.90
40964;DHT22;26693;51.168;4.138;2022-11-04T04:34:12;10.40;99.90
40964;DHT22;26693;51.168;4.138;2022-11-04T04:35:13;10.50;99.90
40964;DHT22;26693;51.168;4.138;2022-11-04T04:36:40;10.40;99.90
40964;DHT22;26693;51.168;4.138;2022-11-04T04:37:45;10.50;99.90
40964;DHT22;26693;51.168;4.138;2022-11-04T04:38:47;10.50;99.90
40964;DHT22;26693;51.168;4.138;2022-11-04T04:40:10;10.50;99.90
40964;DHT22;26693;51.168;4.138;2022-11-04T04:41:30;10.60;99.90
40964;DHT22;26693;51.168;4.138;2022-11-04T04:42:53;10.60;99.90
40964;DHT22;26693;51.168;4.138;2022-11-04T04:44:30;10.60;99.90
40964;DHT22;26693;51.168;4.138;2022-11-04T04:45:51;10.60;99.90
40964;DHT22;26693;51.168;4.138;2022-11-04T04:46:54;10.40;99.90
40964;DHT22;26693;51.168;4.138;2022-11-04T04:47:55;10.40;99.90
40964;DHT22;26693;51.168;4.138;2022-11-04T04:49:03;10.40;99.90
40964;DHT22;26693;51.168;4.138;2022-11-04T04:50:05;10.40;99.90
40964;DHT22;26693;51.168;4.138;2022-11-04T04:51:06;10.40;99.90
40964;DHT22;26693;51.168;4.138;2022-11-04T04:52:07;10.50;99.90
40964;DHT22;26693;51.168;4.138;2022-11-04T04:53:08;10.60;99.90
40964;DHT22;26693;51.168;4.138;2022-11-04T04:54:08;10.60;99.90
40964;DHT22;26693;51.168;4.138;2022-11-04T04:55:10;10.50;99.90
40964;DHT22;26693;51.168;4.138;2022-11-04T04:56:11;10.60;99.90
40964;DHT22;26693;51.168;4.138;2022-11-04T04:57:12;10.40;99.90
40964;DHT22;26693;51.168;4.138;2022-11-04T04:58:15;10.40;99.90
40964;DHT22;26693;51.168;4.138;2022-11-04T04:59:15;10.40;99.90
40964;DHT22;26693;51.168;4.138;2022-11-04T05:00:18;10.50;99.90
40964;DHT22;26693;51.168;4.138;2022-11-04T05:01:19;10.50;99.90
40964;DHT22;26693;51.168;4.138;2022-11-04T05:02:19;10.50;99.90
40964;DHT22;26693;51.168;4.138;2022-11-04T05:03:20;10.40;99.90
40964;DHT22;26693;51.168;4.138;2022-11-04T05:04:20;10.40;99.90
40964;DHT22;26693;51.168;4.138;2022-11-04T05:05:21;10.40;99.90
40964;DHT22;26693;51.168;4.138;2022-11-04T05:06:21;10.40;99.90
40964;DHT22;26693;51.168;4.138;2022-11-04T05:07:22;10.40;99.90
40964;DHT22;26693;51.168;4.138;2022-11-04T05:08:23;10.40;99.90
40964;DHT22;26693;51.168;4.138;2022-11-04T05:09:23;10.40;99.90
40964;DHT22;26693;51.168;4.138;2022-11-04T05:10:24;10.40;99.90
40964;DHT22;26693;51.168;4.138;2022-11-04T05:11:24;10.50;99.90
40964;DHT22;26693;51.168;4.138;2022-11-04T05:12:25;10.50;99.90
40964;DHT22;26693;51.168;4.138;2022-11-04T05:13:46;10.50;99.90
40964;DHT22;26693;51.168;4.138;2022-11-04T05:14:46;10.60;99.90
40964;DHT22;26693;51.168;4.138;2022-11-04T05:15:47;10.60;99.90
40964;DHT22;26693;51.168;4.138;2022-11-04T05:16:47;10.60;99.90
40964;DHT22;26693;51.168;4.138;2022-11-04T05:17:53;10.70;99.90
40964;DHT22;26693;51.168;4.138;2022-11-04T05:18:53;10.80;99.90
40964;DHT22;26693;51.168;4.138;2022-11-04T05:19:54;10.70;99.90
40964;DHT22;26693;51.168;4.138;2022-11-04T05:20:54;10.70;99.90
40964;DHT22;26693;51.168;4.138;2022-11-04T05:21:55;10.80;99.90
40964;DHT22;26693;51.168;4.138;2022-11-04T05:22:55;10.80;99.90
40964;DHT22;26693;51.168;4.138;2022-11-04T05:23:56;10.90;99.90
40964;DHT22;26693;51.168;4.138;2022-11-04T05:24:56;11.00;99.90
40964;DHT22;26693;51.168;4.138;2022-11-04T05:25:57;11.00;99.90
40964;DHT22;26693;51.168;4.138;2022-11-04T05:26:58;10.90;99.90
40964;DHT22;26693;51.168;4.138;2022-11-04T05:28:00;10.80;99.90
40964;DHT22;26693;51.168;4.138;2022-11-04T05:29:01;10.80;99.90
40964;DHT22;26693;51.168;4.138;2022-11-04T05:30:01;10.80;99.90
40964;DHT22;26693;51.168;4.138;2022-11-04T05:31:05;10.90;99.90
40964;DHT22;26693;51.168;4.138;2022-11-04T05:32:06;10.90;99.90
40964;DHT22;26693;51.168;4.138;2022-11-04T05:33:06;10.90;99.90
40964;DHT22;26693;51.168;4.138;2022-11-04T05:34:10;10.90;99.90
40964;DHT22;26693;51.168;4.138;2022-11-04T05:35:10;10.90;99.90
40964;DHT22;26693;51.168;4.138;2022-11-04T05:36:13;10.80;99.90
40964;DHT22;26693;51.168;4.138;2022-11-04T05:37:14;10.90;99.90
40964;DHT22;26693;51.168;4.138;2022-11-04T05:38:14;10.90;99.90
40964;DHT22;26693;51.168;4.138;2022-11-04T05:39:15;10.90;99.90
40964;DHT22;26693;51.168;4.138;2022-11-04T05:40:15;10.90;99.90
40964;DHT22;26693;51.168;4.138;2022-11-04T05:41:17;10.90;99.90
40964;DHT22;26693;51.168;4.138;2022-11-04T05:42:24;10.90;99.90
40964;DHT22;26693;51.168;4.138;2022-11-04T05:43:25;10.90;99.90
40964;DHT22;26693;51.168;4.138;2022-11-04T05:44:25;11.00;99.90
40964;DHT22;26693;51.168;4.138;2022-11-04T05:45:27;11.00;99.90
40964;DHT22;26693;51.168;4.138;2022-11-04T05:46:29;11.00;99.90
40964;DHT22;26693;51.168;4.138;2022-11-04T05:47:29;11.10;99.90
40964;DHT22;26693;51.168;4.138;2022-11-04T05:48:30;11.10;99.90
40964;DHT22;26693;51.168;4.138;2022-11-04T05:49:30;11.20;99.90
40964;DHT22;26693;51.168;4.138;2022-11-04T05:50:32;11.30;99.90
40964;DHT22;26693;51.168;4.138;2022-11-04T05:51:33;11.30;99.90
40964;DHT22;26693;51.168;4.138;2022-11-04T05:52:34;11.30;99.90
40964;DHT22;26693;51.168;4.138;2022-11-04T05:53:34;11.30;99.90
40964;DHT22;26693;51.168;4.138;2022-11-04T05:54:36;11.30;99.90
40964;DHT22;26693;51.168;4.138;2022-11-04T05:55:38;11.40;99.90
40964;DHT22;26693;51.168;4.138;2022-11-04T05:56:39;11.50;99.90
40964;DHT22;26693;51.168;4.138;2022-11-04T05:57:39;11.50;99.90
40964;DHT22;26693;51.168;4.138;2022-11-04T05:58:40;11.60;99.90
40964;DHT22;26693;51.168;4.138;2022-11-04T05:59:40;11.60;99.90
40964;DHT22;26693;51.168;4.138;2022-11-04T06:00:41;11.70;99.90
40964;DHT22;26693;51.168;4.138;2022-11-04T06:01:42;11.60;99.90
40964;DHT22;26693;51.168;4.138;2022-11-04T06:02:43;11.60;99.90
40964;DHT22;26693;51.168;4.138;2022-11-04T06:03:43;11.60;99.90
40964;DHT22;26693;51.168;4.138;2022-11-04T06:04:44;11.70;99.90
40964;DHT22;26693;51.168;4.138;2022-11-04T06:05:44;11.70;99.90
40964;DHT22;26693;51.168;4.138;2022-11-04T06:06:45;11.60;99.90
40964;DHT22;26693;51.168;4.138;2022-11-04T06:07:45;11.70;99.90
40964;DHT22;26693;51.168;4.138;2022-11-04T06:08:46;11.70;99.90
40964;DHT22;26693;51.168;4.138;2022-11-04T06:09:46;11.60;99.90
40964;DHT22;26693;51.168;4.138;2022-11-04T06:10:47;11.50;99.90
40964;DHT22;26693;51.168;4.138;2022-11-04T06:11:47;11.40;99.90
40964;DHT22;26693;51.168;4.138;2022-11-04T06:12:48;11.30;99.90
40964;DHT22;26693;51.168;4.138;2022-11-04T06:13:49;11.40;99.90
40964;DHT22;26693;51.168;4.138;2022-11-04T06:14:49;11.30;99.90
40964;DHT22;26693;51.168;4.138;2022-11-04T06:15:50;11.30;99.90
40964;DHT22;26693;51.168;4.138;2022-11-04T06:16:50;11.40;99.90
40964;DHT22;26693;51.168;4.138;2022-11-04T06:17:51;11.40;99.90
40964;DHT22;26693;51.168;4.138;2022-11-04T06:18:52;11.20;99.90
40964;DHT22;26693;51.168;4.138;2022-11-04T06:19:53;11.00;99.90
40964;DHT22;26693;51.168;4.138;2022-11-04T06:22:14;10.90;99.90
40964;DHT22;26693;51.168;4.138;2022-11-04T06:23:14;10.90;99.90
40964;DHT22;26693;51.168;4.138;2022-11-04T06:24:15;10.90;99.90
40964;DHT22;26693;51.168;4.138;2022-11-04T06:25:15;10.90;99.90
40964;DHT22;26693;51.168;4.138;2022-11-04T06:26:16;11.00;99.90
40964;DHT22;26693;51.168;4.138;2022-11-04T06:27:17;11.00;99.90
40964;DHT22;26693;51.168;4.138;2022-11-04T06:28:17;11.20;99.90
40964;DHT22;26693;51.168;4.138;2022-11-04T06:29:18;11.30;99.90
40964;DHT22;26693;51.168;4.138;2022-11-04T06:30:18;11.40;99.90
40964;DHT22;26693;51.168;4.138;2022-11-04T06:31:19;11.50;99.90
40964;DHT22;26693;51.168;4.138;2022-11-04T06:32:20;11.40;99.90
40964;DHT22;26693;51.168;4.138;2022-11-04T06:33:21;11.30;99.90
40964;DHT22;26693;51.168;4.138;2022-11-04T06:34:21;11.30;99.90
40964;DHT22;26693;51.168;4.138;2022-11-04T06:35:22;11.20;99.90
40964;DHT22;26693;51.168;4.138;2022-11-04T06:36:22;11.10;99.90
40964;DHT22;26693;51.168;4.138;2022-11-04T06:37:23;11.10;99.90
40964;DHT22;26693;51.168;4.138;2022-11-04T06:38:23;11.20;99.90
40964;DHT22;26693;51.168;4.138;2022-11-04T06:39:24;11.30;99.90
40964;DHT22;26693;51.168;4.138;2022-11-04T06:40:25;11.40;99.90
40964;DHT22;26693;51.168;4.138;2022-11-04T06:41:25;11.50;99.90
40964;DHT22;26693;51.168;4.138;2022-11-04T06:42:26;11.60;99.90
40964;DHT22;26693;51.168;4.138;2022-11-04T06:43:27;11.70;99.90
40964;DHT22;26693;51.168;4.138;2022-11-04T06:44:28;11.80;99.90
40964;DHT22;26693;51.168;4.138;2022-11-04T06:45:28;11.90;99.90
40964;DHT22;26693;51.168;4.138;2022-11-04T06:47:29;12.00;99.90
40964;DHT22;26693;51.168;4.138;2022-11-04T06:48:30;12.00;99.90
40964;DHT22;26693;51.168;4.138;2022-11-04T06:49:31;11.90;99.90
40964;DHT22;26693;51.168;4.138;2022-11-04T06:50:32;11.80;99.90
40964;DHT22;26693;51.168;4.138;2022-11-04T06:51:33;11.90;99.90
40964;DHT22;26693;51.168;4.138;2022-11-04T06:52:33;11.90;99.90
40964;DHT22;26693;51.168;4.138;2022-11-04T06:53:34;11.90;99.90
40964;DHT22;26693;51.168;4.138;2022-11-04T06:54:35;11.90;99.90
40964;DHT22;26693;51.168;4.138;2022-11-04T06:55:35;12.00;99.90
40964;DHT22;26693;51.168;4.138;2022-11-04T06:56:36;12.10;99.90
40964;DHT22;26693;51.168;4.138;2022-11-04T06:57:37;12.20;99.90
40964;DHT22;26693;51.168;4.138;2022-11-04T06:58:37;12.20;99.90
40964;DHT22;26693;51.168;4.138;2022-11-04T06:59:38;12.30;99.90
40964;DHT22;26693;51.168;4.138;2022-11-04T07:00:39;12.30;99.90
40964;DHT22;26693;51.168;4.138;2022-11-04T07:01:39;12.40;99.90
40964;DHT22;26693;51.168;4.138;2022-11-04T07:02:40;12.40;99.90
40964;DHT22;26693;51.168;4.138;2022-11-04T07:03:40;12.50;99.90
40964;DHT22;26693;51.168;4.138;2022-11-04T07:04:41;12.50;99.90
40964;DHT22;26693;51.168;4.138;2022-11-04T07:05:41;12.50;99.90
40964;DHT22;26693;51.168;4.138;2022-11-04T07:06:42;12.60;99.90
40964;DHT22;26693;51.168;4.138;2022-11-04T07:07:42;12.50;99.90
40964;DHT22;26693;51.168;4.138;2022-11-04T07:08:43;12.60;99.90
40964;DHT22;26693;51.168;4.138;2022-11-04T07:09:44;12.60;99.90
40964;DHT22;26693;51.168;4.138;2022-11-04T07:10:44;12.60;99.90
40964;DHT22;26693;51.168;4.138;2022-11-04T07:11:45;12.70;99.90
40964;DHT22;26693;51.168;4.138;2022-11-04T07:12:45;12.80;99.90
40964;DHT22;26693;51.168;4.138;2022-11-04T07:13:47;12.70;99.90
40964;DHT22;26693;51.168;4.138;2022-11-04T07:14:48;12.80;99.90